Time;durP1;ratioP1;P1;durP2;ratioP2;P2;SDS_P1;SDS_P2;PMS_P1;PMS_P2;Temp;Humidity;BMP_temperature;BMP_pressure;BME280_temperature;BME280_humidity;BME280_pressure;Samples;Min_cycle;Max_cycle;Signal;HPM_P1;HPM_P2
2021/09/26 00:00:16;;;;;;;6.20;3.00;;;20.00;84.60;;;;;;5014929;28;20417;-75
2021/09/26 00:02:42;;;;;;;7.28;2.97;;;20.00;84.60;;;;;;5014645;28;20021;-76
2021/09/26 00:05:09;;;;;;;5.07;3.10;;;20.00;84.50;;;;;;5014863;28;20018;-76
2021/09/26 00:07:35;;;;;;;4.82;2.50;;;20.00;84.60;;;;;;5014918;28;20029;-76
2021/09/26 00:10:01;;;;;;;6.05;2.85;;;20.00;84.60;;;;;;5014763;28;20479;-75
2021/09/26 00:12:26;;;;;;;5.53;3.10;;;20.00;84.50;;;;;;5014524;28;20029;-77
2021/09/26 00:14:53;;;;;;;7.00;3.08;;;20.00;84.60;;;;;;4997034;28;20058;-76
2021/09/26 00:17:18;;;;;;;5.50;3.03;;;19.90;84.40;;;;;;4975736;28;20029;-76
2021/09/26 00:19:44;;;;;;;5.53;3.00;;;19.90;84.60;;;;;;4992416;28;20031;-77
2021/09/26 00:22:10;;;;;;;5.25;2.90;;;20.00;84.70;;;;;;4991918;28;20030;-75
2021/09/26 00:24:35;;;;;;;6.15;2.90;;;19.90;84.70;;;;;;4991540;28;20073;-76
2021/09/26 00:27:01;;;;;;;6.55;2.92;;;19.90;84.50;;;;;;4975525;28;20018;-76
2021/09/26 00:29:27;;;;;;;6.90;3.15;;;19.90;84.60;;;;;;4993066;28;20085;-76
2021/09/26 00:31:52;;;;;;;5.70;3.13;;;19.90;84.60;;;;;;4992624;28;20679;-76
2021/09/26 00:34:18;;;;;;;5.70;3.03;;;19.90;84.40;;;;;;4992870;28;20444;-76
2021/09/26 00:36:43;;;;;;;6.22;2.85;;;19.90;84.50;;;;;;4991449;28;20022;-76
2021/09/26 00:39:09;;;;;;;4.97;2.78;;;20.00;84.70;;;;;;4992575;28;20026;-76
2021/09/26 00:41:34;;;;;;;8.25;3.50;;;19.90;85.10;;;;;;4991233;28;20019;-76
2021/09/26 00:44:00;;;;;;;4.55;2.50;;;19.90;84.70;;;;;;4992702;28;20480;-76
2021/09/26 00:46:26;;;;;;;6.05;3.10;;;19.90;84.10;;;;;;4974745;28;20033;-75
2021/09/26 00:48:51;;;;;;;5.50;3.10;;;19.90;84.60;;;;;;4992629;28;20030;-76
2021/09/26 00:51:18;;;;;;;8.57;3.20;;;19.90;84.60;;;;;;4974781;28;20015;-76
2021/09/26 00:53:44;;;;;;;6.43;2.92;;;19.90;84.60;;;;;;4992417;28;20050;-75
2021/09/26 00:56:13;;;;;;;6.85;3.13;;;19.90;84.20;;;;;;4975110;28;20026;-76
2021/09/26 00:58:40;;;;;;;5.50;3.10;;;19.90;84.50;;;;;;4975127;28;20111;-75
2021/09/26 01:01:06;;;;;;;5.18;3.03;;;19.90;85.20;;;;;;4974780;28;20082;-75
2021/09/26 01:03:31;;;;;;;7.03;3.00;;;19.90;84.60;;;;;;4974924;28;20408;-76
2021/09/26 01:06:10;;;;;;;7.47;3.17;;;19.90;84.50;;;;;;4992445;28;20025;-77
2021/09/26 01:09:01;;;;;;;9.63;2.95;;;19.90;84.50;;;;;;4992425;28;20372;-75
2021/09/26 01:12:04;;;;;;;7.03;3.00;;;19.90;84.60;;;;;;4974655;28;20499;-75
2021/09/26 01:14:45;;;;;;;8.98;3.20;;;19.90;84.70;;;;;;4992368;28;20468;-76
2021/09/26 01:17:33;;;;;;;;;;;19.90;84.80;;;;;;4992984;28;20023;-76
2021/09/26 01:20:36;;;;;;;5.70;2.95;;;19.90;84.60;;;;;;4981770;28;20446;-75
2021/09/26 01:23:05;;;;;;;6.22;3.10;;;19.90;84.40;;;;;;4991904;28;20108;-76
2021/09/26 01:25:42;;;;;;;6.18;2.97;;;19.90;84.00;;;;;;4991080;28;20053;-76
2021/09/26 01:28:32;;;;;;;5.88;3.00;;;19.90;84.00;;;;;;4991024;28;20109;-75
2021/09/26 01:31:01;;;;;;;6.20;3.38;;;19.90;84.40;;;;;;4990774;28;20068;-76
2021/09/26 01:33:31;;;;;;;6.30;3.20;;;19.90;84.10;;;;;;4992023;28;20029;-76
2021/09/26 01:36:37;;;;;;;6.53;3.30;;;19.80;84.20;;;;;;4974877;28;20022;-75
2021/09/26 01:39:07;;;;;;;6.57;3.20;;;19.80;84.20;;;;;;4977214;28;20388;-76
2021/09/26 01:42:01;;;;;;;5.60;3.13;;;19.80;84.20;;;;;;4974337;28;20022;-76
2021/09/26 01:44:35;;;;;;;6.28;3.17;;;19.80;84.20;;;;;;4992085;28;20092;-75
2021/09/26 01:47:04;;;;;;;6.55;3.13;;;19.80;84.30;;;;;;4974708;28;20026;-75
2021/09/26 01:49:33;;;;;;;5.85;3.30;;;19.80;84.30;;;;;;4990859;28;20018;-76
2021/09/26 01:52:00;;;;;;;5.72;3.30;;;19.80;84.30;;;;;;4991597;28;20380;-76
2021/09/26 01:54:26;;;;;;;7.45;3.35;;;19.80;84.40;;;;;;4974642;28;20053;-76
2021/09/26 01:56:52;;;;;;;6.07;3.40;;;19.80;84.40;;;;;;4992309;28;20357;-76
2021/09/26 01:59:21;;;;;;;7.35;3.28;;;19.80;84.40;;;;;;4995664;28;20022;-76
2021/09/26 02:01:47;;;;;;;6.82;3.70;;;19.80;84.40;;;;;;4977774;28;20061;-75
2021/09/26 02:04:17;;;;;;;5.80;3.10;;;19.80;84.30;;;;;;4995454;28;20100;-76
2021/09/26 02:06:44;;;;;;;7.45;3.17;;;19.80;84.30;;;;;;4978026;28;20472;-76
2021/09/26 02:09:11;;;;;;;5.93;3.03;;;19.80;84.30;;;;;;4994211;28;20022;-76
2021/09/26 02:11:38;;;;;;;6.40;3.40;;;19.80;84.30;;;;;;4977693;28;20022;-76
2021/09/26 02:14:05;;;;;;;6.18;3.17;;;19.80;84.30;;;;;;4995393;28;20022;-77
2021/09/26 02:16:33;;;;;;;7.53;3.67;;;19.80;84.40;;;;;;4977904;28;20033;-76
2021/09/26 02:19:00;;;;;;;6.45;3.53;;;19.80;84.30;;;;;;4977767;28;20037;-77
2021/09/26 02:21:28;;;;;;;5.40;3.30;;;19.80;84.10;;;;;;4994706;28;20030;-75
2021/09/26 02:23:54;;;;;;;6.00;3.20;;;19.80;84.20;;;;;;4995177;28;20019;-75
2021/09/26 02:26:20;;;;;;;6.53;3.17;;;19.80;84.20;;;;;;4995211;28;20468;-76
2021/09/26 02:28:46;;;;;;;6.03;3.58;;;19.80;84.10;;;;;;4995167;28;20080;-76
2021/09/26 02:31:13;;;;;;;6.10;3.40;;;19.80;84.20;;;;;;4994783;28;20037;-75
2021/09/26 02:33:40;;;;;;;6.75;3.38;;;19.80;84.30;;;;;;4977510;28;20053;-76
2021/09/26 02:36:07;;;;;;;5.50;3.25;;;19.80;84.40;;;;;;4996647;28;21019;-77
2021/09/26 02:38:34;;;;;;;7.97;3.75;;;19.80;84.30;;;;;;5000578;28;20027;-76
2021/09/26 02:41:06;;;;;;;6.32;3.10;;;19.80;84.40;;;;;;4977058;28;20026;-76
2021/09/26 02:43:48;;;;;;;6.50;3.60;;;19.80;84.40;;;;;;4977398;28;20025;-75
2021/09/26 02:46:23;;;;;;;8.38;3.53;;;19.80;84.30;;;;;;4994671;28;20408;-75
2021/09/26 02:48:50;;;;;;;6.95;3.95;;;19.80;84.50;;;;;;4993522;28;20494;-76
2021/09/26 02:51:16;;;;;;;6.30;3.22;;;19.80;84.40;;;;;;4976768;28;20034;-77
2021/09/26 02:53:42;;;;;;;7.88;3.60;;;19.80;84.70;;;;;;4989577;28;20022;-75
2021/09/26 02:56:08;;;;;;;7.60;3.70;;;19.80;84.60;;;;;;5007241;28;20022;-78
2021/09/26 02:58:38;;;;;;;5.88;3.28;;;19.80;84.50;;;;;;4996320;28;20488;-77
2021/09/26 03:01:03;;;;;;;6.85;3.55;;;19.80;84.50;;;;;;5013740;28;20021;-75
2021/09/26 03:03:29;;;;;;;7.43;3.45;;;19.80;84.50;;;;;;5014086;28;20021;-75
2021/09/26 03:05:56;;;;;;;6.40;3.75;;;19.80;84.30;;;;;;4996422;28;20410;-74
2021/09/26 03:08:22;;;;;;;7.95;3.50;;;19.80;84.40;;;;;;5013794;28;20052;-75
2021/09/26 03:10:56;;;;;;;6.72;3.42;;;19.80;84.30;;;;;;4995737;28;20432;-75
2021/09/26 03:13:23;;;;;;;8.65;3.55;;;19.80;84.80;;;;;;4996054;28;20041;-76
2021/09/26 03:15:48;;;;;;;7.60;3.60;;;19.80;84.90;;;;;;5013717;28;20026;-77
2021/09/26 03:18:14;;;;;;;7.57;3.60;;;19.80;84.80;;;;;;5013811;28;20069;-76
2021/09/26 03:20:39;;;;;;;7.25;3.50;;;19.70;84.70;;;;;;4995847;28;20022;-76
2021/09/26 03:23:06;;;;;;;5.93;3.80;;;19.80;84.70;;;;;;5014504;28;20395;-76
2021/09/26 03:25:32;;;;;;;6.03;3.53;;;19.70;84.60;;;;;;4996044;28;20022;-75
2021/09/26 03:27:57;;;;;;;5.90;3.30;;;19.80;84.70;;;;;;5013422;28;20037;-75
2021/09/26 03:30:23;;;;;;;6.57;3.55;;;19.80;84.70;;;;;;5013338;28;20018;-74
2021/09/26 03:32:49;;;;;;;5.72;3.67;;;19.80;84.80;;;;;;5013472;28;20475;-75
2021/09/26 03:35:14;;;;;;;7.05;3.40;;;19.80;84.70;;;;;;4995786;28;20056;-75
2021/09/26 03:37:40;;;;;;;6.00;3.42;;;19.70;84.70;;;;;;4996231;28;20036;-75
2021/09/26 03:40:07;;;;;;;6.30;3.58;;;19.80;84.70;;;;;;4995694;28;20026;-75
2021/09/26 03:42:34;;;;;;;5.95;3.42;;;19.70;84.60;;;;;;4995256;28;20112;-75
2021/09/26 03:45:00;;;;;;;6.25;3.55;;;19.80;84.60;;;;;;4995505;28;20109;-75
2021/09/26 03:47:26;;;;;;;6.57;3.70;;;19.70;84.70;;;;;;4995666;28;20547;-75
2021/09/26 03:49:51;;;;;;;6.90;4.03;;;19.70;84.80;;;;;;4995610;28;20022;-75
2021/09/26 03:52:17;;;;;;;6.57;3.65;;;19.70;84.70;;;;;;4995226;28;20014;-77
2021/09/26 03:54:42;;;;;;;7.20;4.15;;;19.70;84.60;;;;;;4995570;28;20384;-77
2021/09/26 03:57:08;;;;;;;6.18;3.42;;;19.70;84.60;;;;;;5012904;28;20112;-76
2021/09/26 03:59:33;;;;;;;8.80;3.40;;;19.70;84.60;;;;;;4995417;28;20072;-75
2021/09/26 04:01:59;;;;;;;7.03;3.38;;;19.70;84.60;;;;;;5012586;28;20022;-75
2021/09/26 04:04:25;;;;;;;5.60;3.38;;;19.60;84.50;;;;;;5012735;28;20025;-75
2021/09/26 04:06:51;;;;;;;6.65;3.40;;;19.70;84.60;;;;;;4995205;28;20104;-75
2021/09/26 04:09:17;;;;;;;6.97;3.95;;;19.70;84.50;;;;;;5012737;28;20408;-75
2021/09/26 04:11:42;;;;;;;6.40;3.45;;;19.70;84.50;;;;;;5012333;28;20026;-76
2021/09/26 04:14:08;;;;;;;7.20;3.47;;;19.70;84.60;;;;;;4995121;28;20036;-76
2021/09/26 04:16:33;;;;;;;5.88;3.50;;;19.70;84.70;;;;;;4995074;28;20037;-76
2021/09/26 04:19:00;;;;;;;5.88;3.55;;;19.70;84.90;;;;;;5012606;28;20057;-75
2021/09/26 04:21:25;;;;;;;6.63;3.80;;;19.70;84.40;;;;;;4993696;28;20044;-75
2021/09/26 04:23:51;;;;;;;7.93;3.60;;;19.80;84.60;;;;;;5012480;28;20026;-76
2021/09/26 04:26:18;;;;;;;6.57;3.65;;;19.80;85.00;;;;;;4994910;28;20148;-76
2021/09/26 04:28:43;;;;;;;6.30;3.42;;;19.70;84.70;;;;;;4995048;28;20026;-76
2021/09/26 04:31:09;;;;;;;7.50;3.05;;;19.70;84.80;;;;;;4994560;28;20017;-77
2021/09/26 04:33:35;;;;;;;6.85;3.70;;;19.70;84.70;;;;;;4994747;28;20112;-75
2021/09/26 04:36:01;;;;;;;6.05;3.50;;;19.70;84.70;;;;;;4994767;28;20061;-75
2021/09/26 04:38:27;;;;;;;5.30;3.15;;;19.70;84.70;;;;;;5012335;28;20088;-75
2021/09/26 04:40:53;;;;;;;6.53;3.60;;;19.70;84.70;;;;;;5011960;28;20573;-74
2021/09/26 04:43:18;;;;;;;8.68;3.60;;;19.70;84.60;;;;;;5012107;28;20113;-75
2021/09/26 04:45:44;;;;;;;7.28;3.58;;;19.70;84.70;;;;;;5012311;28;20022;-75
2021/09/26 04:48:11;;;;;;;7.68;3.60;;;19.70;84.60;;;;;;5012153;28;20021;-75
2021/09/26 04:50:36;;;;;;;6.28;3.47;;;19.70;84.60;;;;;;5011902;28;20018;-76
2021/09/26 04:53:02;;;;;;;6.88;3.40;;;19.70;84.60;;;;;;4990323;28;20026;-75
2021/09/26 04:55:28;;;;;;;6.93;3.45;;;19.70;84.60;;;;;;4994012;28;20022;-75
2021/09/26 04:57:55;;;;;;;6.95;3.22;;;19.70;84.60;;;;;;5009714;28;20479;-75
2021/09/26 05:00:21;;;;;;;4.72;3.10;;;19.70;84.60;;;;;;4993824;28;20104;-75
2021/09/26 05:02:47;;;;;;;6.10;3.55;;;19.70;84.70;;;;;;4994125;28;20065;-75
2021/09/26 05:05:13;;;;;;;5.32;3.30;;;19.70;84.50;;;;;;4994261;28;20041;-75
2021/09/26 05:07:38;;;;;;;6.07;3.53;;;19.70;84.40;;;;;;4994322;28;20546;-75
2021/09/26 05:10:05;;;;;;;6.85;3.40;;;19.70;84.60;;;;;;5011877;28;20060;-75
2021/09/26 05:12:31;;;;;;;6.85;3.40;;;19.70;84.70;;;;;;5011607;28;20026;-76
2021/09/26 05:15:01;;;;;;;9.50;4.13;;;19.70;84.50;;;;;;4994416;28;20026;-75
2021/09/26 05:17:28;;;;;;;6.22;3.50;;;19.70;84.50;;;;;;5011893;28;20049;-75
2021/09/26 05:19:53;;;;;;;6.45;3.60;;;19.70;84.30;;;;;;4994379;28;20060;-75
2021/09/26 05:22:19;;;;;;;5.75;3.38;;;19.70;84.60;;;;;;4993626;28;20123;-76
2021/09/26 05:24:45;;;;;;;6.07;3.65;;;19.70;84.40;;;;;;5011822;28;20123;-75
2021/09/26 05:27:11;;;;;;;7.20;3.65;;;19.70;84.20;;;;;;4994179;28;20061;-76
2021/09/26 05:29:36;;;;;;;6.82;3.50;;;19.70;84.60;;;;;;4994236;28;20014;-76
2021/09/26 05:32:02;;;;;;;7.13;3.42;;;19.70;84.80;;;;;;5011911;28;20029;-77
2021/09/26 05:34:29;;;;;;;6.15;3.25;;;19.70;84.70;;;;;;4998164;28;20728;-74
2021/09/26 05:36:56;;;;;;;5.55;2.90;;;19.70;84.50;;;;;;5015474;28;20032;-75
2021/09/26 05:39:24;;;;;;;7.55;3.60;;;19.80;84.80;;;;;;4998091;28;20018;-75
2021/09/26 05:41:50;;;;;;;5.22;3.05;;;19.70;84.70;;;;;;4997637;28;20026;-75
2021/09/26 05:44:15;;;;;;;6.28;3.40;;;19.70;84.60;;;;;;5015457;28;20499;-75
2021/09/26 05:46:41;;;;;;;6.00;3.22;;;19.70;84.60;;;;;;5015369;28;20026;-75
2021/09/26 05:49:06;;;;;;;5.93;3.35;;;19.70;84.20;;;;;;5015377;28;20026;-75
2021/09/26 05:51:32;;;;;;;5.05;3.38;;;19.70;84.30;;;;;;5014802;28;20096;-75
2021/09/26 05:53:57;;;;;;;7.03;3.25;;;19.70;84.50;;;;;;5015258;28;20403;-75
2021/09/26 05:56:23;;;;;;;6.53;3.42;;;19.70;84.50;;;;;;5015329;28;20033;-74
2021/09/26 05:58:48;;;;;;;6.15;3.35;;;19.70;84.40;;;;;;4997762;28;20018;-75
2021/09/26 06:01:14;;;;;;;5.28;3.10;;;19.80;84.50;;;;;;5014778;28;20026;-75
2021/09/26 06:03:41;;;;;;;4.95;2.92;;;19.70;84.40;;;;;;4997570;28;20049;-75
2021/09/26 06:06:07;;;;;;;5.03;2.90;;;19.70;84.30;;;;;;5015057;28;20018;-76
2021/09/26 06:08:33;;;;;;;5.40;3.25;;;19.80;84.40;;;;;;4997523;28;20014;-75
2021/09/26 06:10:58;;;;;;;6.78;3.38;;;19.80;84.20;;;;;;4997127;28;20017;-75
2021/09/26 06:13:24;;;;;;;6.28;3.60;;;19.80;83.90;;;;;;5014980;28;20479;-76
2021/09/26 06:15:50;;;;;;;7.63;3.20;;;19.80;83.60;;;;;;5024955;28;20018;-75
2021/09/26 06:18:15;;;;;;;10.07;3.50;;;19.90;84.00;;;;;;5011721;28;20032;-76
2021/09/26 06:20:41;;;;;;;8.10;3.30;;;19.90;83.50;;;;;;4997744;28;20042;-74
2021/09/26 06:23:06;;;;;;;5.60;2.97;;;19.90;83.70;;;;;;4999593;28;20041;-77
2021/09/26 06:25:32;;;;;;;6.25;3.10;;;19.90;83.20;;;;;;4989485;28;20033;-76
2021/09/26 06:27:58;;;;;;;6.15;3.30;;;19.90;83.40;;;;;;5023707;28;20378;-76
2021/09/26 06:30:24;;;;;;;8.13;2.97;;;19.90;83.50;;;;;;5010919;28;20583;-75
2021/09/26 06:32:49;;;;;;;6.50;3.20;;;19.90;83.40;;;;;;5028893;28;20032;-74
2021/09/26 06:35:16;;;;;;;5.40;3.13;;;19.90;83.40;;;;;;5028888;28;20112;-75
2021/09/26 06:37:42;;;;;;;6.20;3.22;;;19.90;83.40;;;;;;5010938;28;20022;-75
2021/09/26 06:40:08;;;;;;;6.13;3.30;;;19.90;83.30;;;;;;5011035;28;20026;-76
2021/09/26 06:42:34;;;;;;;6.32;3.33;;;19.90;83.50;;;;;;5010440;28;20032;-74
2021/09/26 06:44:59;;;;;;;5.25;3.20;;;19.90;83.70;;;;;;5027463;28;20022;-75
2021/09/26 06:47:25;;;;;;;6.18;3.22;;;19.90;83.50;;;;;;5010553;28;20028;-75
2021/09/26 06:49:51;;;;;;;6.25;3.00;;;19.90;83.20;;;;;;5010707;28;20024;-75
2021/09/26 06:52:17;;;;;;;5.63;2.85;;;20.00;83.10;;;;;;5009803;28;20018;-74
2021/09/26 06:54:43;;;;;;;5.18;2.85;;;20.00;83.00;;;;;;5028407;28;20026;-75
2021/09/26 06:57:10;;;;;;;5.78;3.50;;;20.10;82.70;;;;;;5028301;28;20037;-75
2021/09/26 06:59:36;;;;;;;5.93;3.20;;;20.10;82.60;;;;;;5010373;28;20026;-75
2021/09/26 07:02:01;;;;;;;5.47;3.03;;;20.10;82.60;;;;;;5027762;28;20037;-75
2021/09/26 07:04:27;;;;;;;6.68;3.00;;;20.20;82.40;;;;;;5010027;28;20040;-77
2021/09/26 07:06:52;;;;;;;5.15;3.00;;;20.20;82.10;;;;;;5010359;28;20033;-76
2021/09/26 07:09:18;;;;;;;6.53;3.38;;;20.30;82.10;;;;;;5027918;28;20029;-76
2021/09/26 07:11:45;;;;;;;5.85;3.10;;;20.30;81.70;;;;;;5009176;28;20025;-79
2021/09/26 07:14:10;;;;;;;5.47;2.90;;;20.30;81.90;;;;;;5027642;28;20041;-74
2021/09/26 07:16:36;;;;;;;5.85;2.78;;;20.30;81.20;;;;;;5009598;28;20048;-77
2021/09/26 07:19:01;;;;;;;6.32;2.80;;;20.40;81.00;;;;;;5027945;28;20503;-75
2021/09/26 07:21:27;;;;;;;7.47;3.25;;;20.40;81.10;;;;;;5009611;28;20140;-76
2021/09/26 07:23:53;;;;;;;6.65;3.33;;;20.40;80.60;;;;;;5027659;28;20037;-75
2021/09/26 07:26:19;;;;;;;6.47;2.72;;;20.50;80.40;;;;;;5017111;28;20029;-77
2021/09/26 07:28:44;;;;;;;6.47;2.90;;;20.50;80.40;;;;;;4984416;28;20018;-76
2021/09/26 07:31:10;;;;;;;9.00;3.08;;;20.60;82.00;;;;;;4991385;28;20496;-76
2021/09/26 07:33:36;;;;;;;6.75;2.70;;;20.70;80.80;;;;;;4999341;28;20029;-76
2021/09/26 07:36:02;;;;;;;5.78;3.00;;;20.70;80.30;;;;;;5010454;28;20021;-75
2021/09/26 07:38:27;;;;;;;5.63;2.85;;;20.70;79.90;;;;;;5010286;28;20498;-75
2021/09/26 07:40:53;;;;;;;5.85;3.05;;;20.80;79.60;;;;;;5010211;28;20029;-77
2021/09/26 07:43:18;;;;;;;5.72;2.90;;;20.70;79.50;;;;;;5010026;28;20082;-75
2021/09/26 07:45:44;;;;;;;8.40;3.05;;;20.70;80.10;;;;;;5028719;28;20017;-76
2021/09/26 07:48:10;;;;;;;8.13;3.47;;;20.70;80.10;;;;;;5028624;28;20029;-76
2021/09/26 07:50:35;;;;;;;8.65;3.80;;;20.60;80.10;;;;;;5008646;28;20030;-75
2021/09/26 07:53:01;;;;;;;6.43;3.20;;;20.70;79.80;;;;;;5008388;28;20029;-76
2021/09/26 07:55:26;;;;;;;5.38;2.88;;;20.60;80.00;;;;;;5008758;28;20051;-77
2021/09/26 07:57:52;;;;;;;5.15;2.67;;;20.60;79.80;;;;;;5010158;28;20014;-78
2021/09/26 08:00:18;;;;;;;7.30;3.03;;;20.50;80.00;;;;;;5009218;28;20083;-76
2021/09/26 08:02:44;;;;;;;5.25;2.70;;;20.60;79.80;;;;;;5009531;28;20155;-75
2021/09/26 08:05:10;;;;;;;5.10;2.60;;;20.60;79.50;;;;;;5027386;28;20101;-75
2021/09/26 08:07:36;;;;;;;3.88;2.40;;;20.70;79.30;;;;;;5009341;28;20033;-77
2021/09/26 08:10:04;;;;;;;6.80;3.10;;;20.70;79.10;;;;;;5034654;28;20032;-75
2021/09/26 08:12:30;;;;;;;7.30;3.50;;;20.60;80.00;;;;;;5038591;28;20017;-75
2021/09/26 08:14:55;;;;;;;5.75;2.80;;;20.60;80.50;;;;;;5042327;28;20056;-74
2021/09/26 08:17:21;;;;;;;7.90;3.05;;;20.50;80.10;;;;;;5027597;28;20026;-75
2021/09/26 08:19:47;;;;;;;7.32;2.88;;;20.60;80.00;;;;;;5023285;28;20025;-74
2021/09/26 08:22:12;;;;;;;5.68;2.70;;;20.50;80.00;;;;;;5028915;28;20041;-75
2021/09/26 08:24:38;;;;;;;5.00;2.78;;;20.60;80.30;;;;;;5027764;28;20057;-75
2021/09/26 08:27:05;;;;;;;6.65;2.80;;;20.50;79.90;;;;;;5029820;28;20076;-75
2021/09/26 08:29:31;;;;;;;4.85;2.60;;;20.50;80.00;;;;;;5029037;28;20060;-75
2021/09/26 08:31:57;;;;;;;5.47;2.70;;;20.60;80.00;;;;;;5018209;28;20029;-74
2021/09/26 08:34:22;;;;;;;4.80;2.30;;;20.60;80.10;;;;;;5034172;28;20395;-75
2021/09/26 08:36:48;;;;;;;5.60;3.00;;;20.60;80.00;;;;;;5038063;28;20037;-74
2021/09/26 08:39:14;;;;;;;7.72;3.38;;;20.60;80.40;;;;;;5026853;28;20059;-74
2021/09/26 08:41:41;;;;;;;6.57;2.95;;;20.70;80.60;;;;;;5029266;28;20009;-76
2021/09/26 08:44:06;;;;;;;6.53;2.83;;;20.90;80.00;;;;;;5019071;28;20037;-73
2021/09/26 08:46:33;;;;;;;9.05;3.40;;;20.80;79.80;;;;;;5035322;28;20085;-74
2021/09/26 08:48:59;;;;;;;9.82;3.50;;;21.00;80.30;;;;;;5020699;28;20124;-75
2021/09/26 08:51:25;;;;;;;7.93;3.22;;;20.90;79.70;;;;;;5020359;28;20038;-76
2021/09/26 08:53:51;;;;;;;5.25;2.90;;;21.00;79.50;;;;;;5016526;28;20037;-74
2021/09/26 08:56:20;;;;;;;6.25;2.88;;;20.90;79.50;;;;;;5012388;28;20033;-74
2021/09/26 08:58:47;;;;;;;6.60;3.00;;;20.90;80.00;;;;;;5037800;28;20032;-76
2021/09/26 09:01:13;;;;;;;7.43;3.30;;;20.80;79.80;;;;;;5045889;28;20028;-75
2021/09/26 09:03:39;;;;;;;9.55;3.00;;;20.70;79.70;;;;;;5031202;28;20076;-76
2021/09/26 09:06:05;;;;;;;6.10;3.55;;;20.80;80.10;;;;;;5030877;28;20029;-74
2021/09/26 09:08:30;;;;;;;8.23;3.45;;;20.80;80.10;;;;;;5031150;28;20048;-74
2021/09/26 09:10:59;;;;;;;8.80;3.60;;;21.00;80.50;;;;;;5031233;28;20359;-75
2021/09/26 09:13:33;;;;;;;9.65;3.80;;;20.70;80.50;;;;;;5022868;28;20240;-75
2021/09/26 09:16:02;;;;;;;8.75;3.50;;;20.70;80.90;;;;;;5028664;28;20017;-76
2021/09/26 09:18:50;;;;;;;6.40;3.47;;;20.80;80.30;;;;;;5024271;28;20866;-74
2021/09/26 09:21:22;;;;;;;9.18;4.00;;;20.80;80.70;;;;;;5026280;28;20026;-74
2021/09/26 09:23:51;;;;;;;11.85;4.38;;;20.80;80.30;;;;;;5011550;28;21033;-75
2021/09/26 09:26:34;;;;;;;6.68;3.90;;;21.00;80.80;;;;;;5030221;28;20021;-73
2021/09/26 09:29:00;;;;;;;6.57;3.45;;;21.10;79.90;;;;;;5027231;28;20092;-76
2021/09/26 09:31:26;;;;;;;10.02;3.88;;;21.30;79.10;;;;;;5025705;28;20029;-75
2021/09/26 09:33:52;;;;;;;8.75;4.00;;;21.30;78.50;;;;;;5013979;28;20029;-75
2021/09/26 09:36:20;;;;;;;8.43;4.28;;;21.40;78.40;;;;;;5022185;28;20084;-76
2021/09/26 09:38:50;;;;;;;8.32;4.18;;;21.40;78.10;;;;;;5024995;28;20025;-75
2021/09/26 09:41:40;;;;;;;7.83;3.70;;;21.50;77.90;;;;;;5030047;28;20037;-75
2021/09/26 09:44:08;;;;;;;6.28;3.90;;;21.50;77.40;;;;;;5025299;28;20099;-74
2021/09/26 09:46:47;;;;;;;7.43;4.18;;;21.60;77.20;;;;;;5036715;28;20025;-78
2021/09/26 09:49:19;;;;;;;6.60;3.85;;;21.60;77.10;;;;;;5026026;28;20021;-76
2021/09/26 09:51:53;;;;;;;6.05;3.72;;;21.60;77.00;;;;;;5024270;28;20510;-75
2021/09/26 09:54:30;;;;;;;6.85;4.07;;;21.60;77.00;;;;;;5021383;28;20030;-74
2021/09/26 09:56:58;;;;;;;8.18;3.70;;;21.70;77.10;;;;;;5022306;28;20044;-74
2021/09/26 09:59:35;;;;;;;5.57;3.47;;;22.00;77.10;;;;;;5045145;28;20026;-76
2021/09/26 10:02:01;;;;;;;7.95;4.32;;;21.70;76.70;;;;;;5026445;28;20026;-75
2021/09/26 10:04:39;;;;;;;8.32;3.95;;;21.80;76.90;;;;;;5028313;28;20262;-75
2021/09/26 10:07:25;;;;;;;6.97;4.22;;;21.90;76.90;;;;;;5012873;28;20066;-77
2021/09/26 10:09:52;;;;;;;5.55;3.70;;;21.90;76.80;;;;;;5039016;28;20032;-76
2021/09/26 10:12:22;;;;;;;6.18;3.80;;;21.90;76.50;;;;;;5032001;28;20017;-75
2021/09/26 10:15:01;;;;;;;9.15;4.43;;;21.90;76.40;;;;;;5015042;28;20128;-77
2021/09/26 10:17:27;;;;;;;7.90;3.70;;;22.00;76.30;;;;;;5007532;28;20031;-74
2021/09/26 10:19:53;;;;;;;6.00;3.47;;;22.00;76.40;;;;;;5011893;28;20129;-74
2021/09/26 10:22:20;;;;;;;7.32;4.22;;;22.00;76.30;;;;;;5007023;28;20037;-75
2021/09/26 10:24:52;;;;;;;6.20;4.20;;;21.90;76.30;;;;;;5012122;28;20029;-75
2021/09/26 10:27:22;;;;;;;8.90;4.32;;;22.10;76.20;;;;;;5012136;28;20050;-74
2021/09/26 10:29:52;;;;;;;7.57;4.30;;;22.20;76.20;;;;;;4993855;28;20010;-74
2021/09/26 10:32:19;;;;;;;6.18;4.32;;;22.20;76.20;;;;;;5011088;28;20349;-75
2021/09/26 10:34:44;;;;;;;6.75;4.13;;;22.20;76.40;;;;;;5010790;28;20014;-75
2021/09/26 10:37:14;;;;;;;6.65;4.10;;;22.20;76.30;;;;;;4994779;28;20057;-74
2021/09/26 10:39:41;;;;;;;8.05;5.00;;;22.20;76.30;;;;;;4985482;28;20026;-75
2021/09/26 10:42:15;;;;;;;7.55;4.35;;;22.20;75.90;;;;;;4982566;28;20094;-75
2021/09/26 10:44:48;;;;;;;7.65;4.38;;;22.20;75.70;;;;;;5000188;28;20339;-75
2021/09/26 10:47:18;;;;;;;8.15;4.80;;;22.20;76.20;;;;;;5000256;28;20094;-75
2021/09/26 10:50:08;;;;;;;7.45;4.60;;;22.20;76.10;;;;;;4982371;28;20492;-75
2021/09/26 10:52:39;;;;;;;6.90;4.45;;;22.30;76.00;;;;;;4983064;28;20022;-75
2021/09/26 10:55:29;;;;;;;8.32;4.68;;;22.30;75.60;;;;;;4981389;28;20037;-76
2021/09/26 10:58:00;;;;;;;7.82;4.82;;;22.30;76.00;;;;;;4979202;28;20030;-75
2021/09/26 11:01:01;;;;;;;7.40;4.75;;;22.30;75.50;;;;;;4982481;28;20083;-76
2021/09/26 11:03:41;;;;;;;6.43;4.25;;;22.30;75.70;;;;;;4981303;28;20049;-76
2021/09/26 11:06:39;;;;;;;7.13;4.57;;;22.30;75.80;;;;;;5000401;28;20511;-76
2021/09/26 11:09:09;;;;;;;7.38;4.60;;;22.40;75.80;;;;;;4972314;28;20117;-77
2021/09/26 11:11:46;;;;;;;8.70;4.57;;;22.40;75.70;;;;;;4993939;28;20116;-76
2021/09/26 11:14:14;;;;;;;7.82;4.70;;;22.40;75.70;;;;;;4991313;28;20450;-76
2021/09/26 11:16:58;;;;;;;9.05;4.63;;;22.40;75.60;;;;;;4990805;28;20022;-74
2021/09/26 11:19:26;;;;;;;10.20;4.93;;;22.40;75.50;;;;;;5005475;28;20033;-76
2021/09/26 11:21:54;;;;;;;8.93;4.78;;;22.40;75.40;;;;;;5000484;28;20579;-76
2021/09/26 11:24:25;;;;;;;7.78;4.25;;;22.30;75.30;;;;;;5009185;28;20049;-75
2021/09/26 11:27:10;;;;;;;8.20;4.47;;;22.30;75.60;;;;;;5013529;28;20018;-77
2021/09/26 11:29:39;;;;;;;10.32;5.10;;;22.30;75.60;;;;;;4996150;28;20117;-77
2021/09/26 11:32:26;;;;;;;7.45;4.63;;;22.40;75.10;;;;;;4997797;28;20033;-76
2021/09/26 11:34:58;;;;;;;7.05;4.15;;;22.30;75.50;;;;;;4998399;28;20059;-77
2021/09/26 11:37:35;;;;;;;7.43;4.53;;;22.20;75.20;;;;;;5014181;28;20245;-77
2021/09/26 11:40:02;;;;;;;6.80;3.95;;;22.10;75.50;;;;;;4997007;28;20061;-77
